Time;durP1;ratioP1;P1;durP2;ratioP2;P2;SDS_P1;SDS_P2;PMS_P1;PMS_P2;Temp;Humidity;BMP_temperature;BMP_pressure;BME280_temperature;BME280_humidity;BME280_pressure;Samples;Min_cycle;Max_cycle;Signal;HPM_P1;HPM_P2
2022/01/11 00:00:28;;;;;;;16.83;12.93;;;1.70;76.10;;;;;;4808248;29;20054;-76
2022/01/11 00:02:55;;;;;;;17.43;13.60;;;1.70;76.00;;;;;;4824449;29;20046;-75
2022/01/11 00:07:53;;;;;;;17.33;13.03;;;1.60;75.50;;;;;;4832674;29;20061;-75
2022/01/11 00:10:32;;;;;;;19.53;13.90;;;1.50;75.40;;;;;;4825526;29;20081;-76
2022/01/11 00:13:00;;;;;;;18.60;14.33;;;1.50;75.50;;;;;;4837356;29;20428;-76
2022/01/11 00:15:27;;;;;;;18.67;14.23;;;1.40;75.50;;;;;;4825021;29;20043;-76
2022/01/11 00:17:53;;;;;;;17.63;13.77;;;1.30;75.50;;;;;;4835881;29;20065;-76
2022/01/11 00:20:20;;;;;;;19.77;13.57;;;1.30;75.40;;;;;;4827418;29;20061;-76
2022/01/11 00:25:26;;;;;;;16.63;13.10;;;1.20;75.40;;;;;;4839535;29;20539;-76
2022/01/11 00:27:52;;;;;;;18.77;14.17;;;1.10;75.50;;;;;;4828056;29;20090;-76
2022/01/11 00:30:18;;;;;;;17.20;13.67;;;1.10;75.70;;;;;;4827243;29;20046;-75
2022/01/11 00:32:49;;;;;;;17.73;13.77;;;1.00;75.80;;;;;;4827161;29;20042;-75
2022/01/11 00:35:17;;;;;;;19.60;14.63;;;1.10;76.10;;;;;;4826623;29;20055;-75
2022/01/11 00:37:44;;;;;;;20.40;14.30;;;1.10;76.40;;;;;;4813985;29;20535;-75
2022/01/11 00:40:10;;;;;;;19.97;14.77;;;1.10;76.50;;;;;;4827214;29;20046;-75
2022/01/11 00:42:37;;;;;;;25.17;15.70;;;1.10;76.70;;;;;;4826931;29;20058;-76
2022/01/11 00:45:05;;;;;;;20.13;14.53;;;1.20;76.90;;;;;;4827405;29;20050;-75
2022/01/11 00:47:31;;;;;;;20.90;15.60;;;1.20;77.00;;;;;;4815630;29;20053;-76
2022/01/11 00:49:56;;;;;;;24.00;15.90;;;1.30;77.10;;;;;;4812102;29;20141;-75
2022/01/11 00:52:22;;;;;;;20.37;15.23;;;1.30;77.60;;;;;;4823652;29;20494;-75
2022/01/11 00:54:48;;;;;;;22.80;15.10;;;1.30;77.30;;;;;;4810811;29;20103;-76
2022/01/11 00:57:14;;;;;;;23.83;15.53;;;1.40;77.40;;;;;;4834067;29;20053;-75
2022/01/11 00:59:39;;;;;;;25.37;16.20;;;1.40;77.50;;;;;;4800855;29;20054;-75
2022/01/11 01:02:05;;;;;;;23.57;16.27;;;1.40;77.50;;;;;;4821319;29;20103;-75
2022/01/11 01:04:31;;;;;;;26.50;16.97;;;1.40;77.40;;;;;;4840367;29;20042;-76
2022/01/11 01:06:56;;;;;;;25.57;17.03;;;1.40;77.40;;;;;;4820203;29;20046;-76
2022/01/11 01:09:24;;;;;;;22.23;14.83;;;1.50;77.20;;;;;;4826484;29;20415;-76
2022/01/11 01:11:51;;;;;;;18.97;15.03;;;1.40;76.70;;;;;;4842223;29;20078;-76
2022/01/11 01:14:17;;;;;;;23.63;16.70;;;1.40;76.70;;;;;;4845529;29;20042;-75
2022/01/11 01:16:43;;;;;;;25.37;16.73;;;1.40;76.80;;;;;;4835734;29;20136;-75
2022/01/11 01:19:09;;;;;;;24.47;16.37;;;1.40;76.90;;;;;;4827328;29;20121;-75
2022/01/11 01:21:38;;;;;;;23.10;16.17;;;1.40;77.00;;;;;;4826050;29;20042;-75
2022/01/11 01:24:08;;;;;;;25.50;16.87;;;1.40;77.00;;;;;;4836379;29;20050;-75
2022/01/11 01:26:34;;;;;;;24.17;17.27;;;1.40;76.90;;;;;;4841027;29;20378;-76
2022/01/11 01:29:00;;;;;;;24.33;16.93;;;1.40;76.70;;;;;;4824409;29;20050;-76
2022/01/11 01:31:29;;;;;;;25.63;16.90;;;1.40;76.60;;;;;;4813439;29;20065;-76
2022/01/11 01:33:56;;;;;;;23.57;16.53;;;1.40;76.60;;;;;;4826699;29;20117;-75
2022/01/11 01:36:23;;;;;;;26.00;17.03;;;1.40;76.60;;;;;;4826356;29;20517;-76
2022/01/11 01:38:49;;;;;;;24.63;16.30;;;1.30;76.50;;;;;;4834394;29;20058;-76
2022/01/11 01:41:16;;;;;;;24.70;17.00;;;1.40;76.50;;;;;;4827037;29;20050;-75
2022/01/11 01:43:45;;;;;;;25.17;17.10;;;1.40;76.30;;;;;;4824027;29;20046;-76
2022/01/11 01:46:11;;;;;;;24.77;15.63;;;1.30;76.30;;;;;;4824848;29;20137;-76
2022/01/11 01:48:37;;;;;;;24.83;16.30;;;1.30;76.20;;;;;;4839677;29;20443;-76
2022/01/11 01:51:05;;;;;;;22.57;16.00;;;1.30;76.10;;;;;;4819254;29;20062;-76
2022/01/11 01:53:32;;;;;;;24.00;16.43;;;1.30;76.10;;;;;;4824341;29;20046;-76
2022/01/11 01:55:57;;;;;;;24.67;17.30;;;1.30;76.00;;;;;;4819763;29;20061;-76
2022/01/11 01:58:25;;;;;;;23.67;15.33;;;1.30;76.10;;;;;;4839829;29;20398;-76
2022/01/11 02:00:54;;;;;;;23.40;15.93;;;1.20;76.00;;;;;;4824118;29;20054;-76
2022/01/11 02:03:26;;;;;;;24.10;15.90;;;1.20;76.00;;;;;;4821484;29;20076;-75
2022/01/11 02:05:54;;;;;;;23.23;15.37;;;1.20;75.90;;;;;;4826252;29;20153;-76
2022/01/11 02:08:20;;;;;;;28.83;17.43;;;1.20;75.90;;;;;;4826330;29;20042;-76
2022/01/11 02:10:46;;;;;;;30.13;17.27;;;1.10;75.80;;;;;;4826048;29;20050;-76
2022/01/11 02:13:12;;;;;;;27.43;16.87;;;1.10;75.90;;;;;;4825799;29;20108;-75
2022/01/11 02:15:38;;;;;;;32.00;17.53;;;1.00;76.30;;;;;;4812567;29;20573;-76
2022/01/11 02:18:15;;;;;;;31.90;17.67;;;1.00;76.00;;;;;;4820527;29;20137;-76
2022/01/11 02:20:45;;;;;;;37.43;18.43;;;1.00;76.10;;;;;;4825659;29;20093;-76
2022/01/11 02:23:12;;;;;;;34.83;18.73;;;0.90;76.20;;;;;;4825875;29;20050;-76
2022/01/11 02:25:38;;;;;;;30.10;17.77;;;0.90;76.40;;;;;;4820934;29;20050;-75
2022/01/11 02:28:05;;;;;;;27.87;17.30;;;0.90;76.50;;;;;;4832022;29;20049;-76
2022/01/11 02:30:33;;;;;;;29.83;18.17;;;0.90;76.60;;;;;;4819543;29;20498;-76
2022/01/11 02:33:02;;;;;;;31.07;18.07;;;0.90;76.70;;;;;;4817329;29;20043;-75
2022/01/11 02:35:27;;;;;;;32.60;18.47;;;0.90;76.80;;;;;;4813366;29;20069;-75
2022/01/11 02:37:53;;;;;;;35.10;19.97;;;0.90;77.00;;;;;;4834053;29;20046;-76
2022/01/11 02:40:20;;;;;;;37.40;22.27;;;0.90;77.10;;;;;;4825874;29;20056;-76
2022/01/11 02:42:46;;;;;;;37.17;20.90;;;0.90;77.20;;;;;;4831631;29;20058;-75
2022/01/11 02:45:17;;;;;;;39.70;21.47;;;0.90;77.20;;;;;;4839456;29;20126;-76
2022/01/11 02:47:47;;;;;;;32.07;19.83;;;0.90;77.40;;;;;;4825272;29;20057;-76
2022/01/11 02:50:14;;;;;;;41.97;22.53;;;0.90;77.50;;;;;;4825593;29;20046;-76
2022/01/11 02:52:40;;;;;;;39.33;22.13;;;0.90;77.50;;;;;;4832092;29;20054;-75
2022/01/11 02:55:12;;;;;;;43.13;23.00;;;0.90;77.60;;;;;;4821975;29;20048;-76
2022/01/11 02:57:38;;;;;;;42.00;22.20;;;0.90;77.60;;;;;;4825578;29;20049;-75
2022/01/11 03:00:16;;;;;;;44.80;23.60;;;0.90;77.70;;;;;;4819715;29;20054;-75
2022/01/11 03:02:42;;;;;;;36.43;21.40;;;1.00;78.30;;;;;;4824710;29;20125;-76
2022/01/11 03:05:10;;;;;;;37.00;20.73;;;1.00;77.80;;;;;;4820426;29;20121;-75
2022/01/11 03:07:36;;;;;;;43.77;22.50;;;1.00;77.90;;;;;;4823848;29;20110;-75
2022/01/11 03:10:14;;;;;;;40.97;21.70;;;0.90;77.80;;;;;;4825405;29;20171;-76
2022/01/11 03:12:43;;;;;;;39.90;21.17;;;1.00;77.90;;;;;;4824738;29;20091;-75
2022/01/11 03:15:11;;;;;;;37.97;20.83;;;0.90;77.80;;;;;;4819264;29;20406;-75
2022/01/11 03:17:38;;;;;;;39.63;21.90;;;1.00;77.80;;;;;;4824561;29;20062;-75
2022/01/11 03:20:05;;;;;;;45.73;23.27;;;1.00;77.80;;;;;;4823587;29;20057;-75
2022/01/11 03:22:31;;;;;;;46.70;24.37;;;1.00;77.90;;;;;;4838135;29;20050;-76
2022/01/11 03:24:56;;;;;;;50.87;25.60;;;1.00;77.80;;;;;;4824467;29;20052;-75
2022/01/11 03:27:22;;;;;;;46.53;22.20;;;0.90;77.70;;;;;;4804699;29;20050;-76
2022/01/11 03:29:47;;;;;;;38.90;22.67;;;1.00;77.80;;;;;;4821676;29;20050;-76
2022/01/11 03:32:18;;;;;;;48.40;23.93;;;0.90;77.80;;;;;;4835450;29;20052;-76
2022/01/11 03:34:45;;;;;;;48.43;24.13;;;0.90;77.90;;;;;;4816794;29;20395;-76
2022/01/11 03:37:17;;;;;;;43.73;23.37;;;0.90;78.30;;;;;;4823992;29;20486;-75
2022/01/11 03:39:43;;;;;;;41.63;23.30;;;0.90;77.90;;;;;;4832063;29;20054;-76
2022/01/11 03:42:09;;;;;;;49.70;23.47;;;1.00;78.00;;;;;;4823734;29;20244;-76
2022/01/11 03:44:35;;;;;;;44.67;24.53;;;0.90;78.00;;;;;;4825042;29;20054;-76
2022/01/11 03:47:01;;;;;;;47.90;23.83;;;1.00;78.10;;;;;;4824308;29;20054;-76
2022/01/11 03:49:27;;;;;;;45.23;23.90;;;1.00;78.10;;;;;;4828890;29;20038;-75
2022/01/11 03:51:53;;;;;;;51.30;25.13;;;1.00;78.10;;;;;;4830173;29;20096;-76
2022/01/11 03:54:25;;;;;;;46.73;23.50;;;1.00;78.10;;;;;;4830616;29;20505;-76
2022/01/11 03:56:51;;;;;;;47.67;23.57;;;1.00;78.10;;;;;;4823519;29;20467;-76
2022/01/11 03:59:17;;;;;;;47.27;21.63;;;1.00;78.10;;;;;;4820443;29;20083;-76
2022/01/11 04:01:43;;;;;;;44.80;22.90;;;1.00;78.30;;;;;;4830561;29;20050;-75
2022/01/11 04:04:10;;;;;;;47.53;22.30;;;1.00;78.30;;;;;;4840299;29;20542;-75
2022/01/11 04:06:36;;;;;;;42.90;22.60;;;1.00;78.30;;;;;;4830762;29;20085;-75
2022/01/11 04:09:06;;;;;;;47.13;22.47;;;1.00;78.30;;;;;;4832188;29;20483;-75
2022/01/11 04:11:33;;;;;;;39.77;20.80;;;1.00;78.30;;;;;;4826237;29;20094;-75
2022/01/11 04:13:59;;;;;;;41.83;21.70;;;1.00;78.20;;;;;;4814357;29;20129;-75
2022/01/11 04:16:25;;;;;;;40.27;20.40;;;1.00;78.20;;;;;;4842514;29;20122;-75
2022/01/11 04:18:50;;;;;;;41.40;20.57;;;1.00;78.10;;;;;;4828744;29;20141;-75
2022/01/11 04:21:16;;;;;;;42.53;20.97;;;1.00;78.00;;;;;;4830187;29;20091;-76
2022/01/11 04:23:42;;;;;;;37.57;21.23;;;1.00;78.00;;;;;;4830051;29;20038;-75
2022/01/11 04:26:07;;;;;;;41.27;20.27;;;1.00;77.90;;;;;;4830134;29;20050;-76
2022/01/11 04:28:33;;;;;;;40.43;20.90;;;0.90;77.80;;;;;;4830032;29;20050;-75
2022/01/11 04:31:00;;;;;;;37.30;20.40;;;0.90;77.80;;;;;;4828907;29;20478;-76
2022/01/11 04:33:30;;;;;;;35.40;19.47;;;0.90;77.80;;;;;;4842728;29;20058;-75
2022/01/11 04:36:00;;;;;;;42.07;20.80;;;0.90;77.90;;;;;;4823593;29;20137;-76
2022/01/11 04:38:28;;;;;;;38.47;20.17;;;0.90;77.90;;;;;;4830464;29;20125;-75
2022/01/11 04:40:55;;;;;;;41.30;20.40;;;0.80;78.00;;;;;;4838282;29;20406;-75
2022/01/11 04:43:21;;;;;;;38.97;20.20;;;0.90;78.00;;;;;;4830026;29;20053;-75
2022/01/11 04:45:47;;;;;;;35.40;20.17;;;0.90;78.00;;;;;;4822240;29;20439;-76
2022/01/11 04:48:14;;;;;;;36.77;20.27;;;0.90;78.10;;;;;;4830200;29;20547;-75
2022/01/11 04:50:41;;;;;;;35.43;19.63;;;0.90;78.10;;;;;;4826550;29;20105;-76
2022/01/11 04:53:07;;;;;;;38.20;19.20;;;0.90;78.10;;;;;;4812215;29;20058;-75
2022/01/11 04:55:33;;;;;;;38.20;20.13;;;0.90;78.10;;;;;;4828937;29;20054;-75
2022/01/11 04:57:59;;;;;;;35.77;20.57;;;0.90;78.10;;;;;;4838901;29;20053;-75
2022/01/11 05:00:26;;;;;;;37.87;20.03;;;0.90;78.10;;;;;;4837318;29;20042;-75
2022/01/11 05:02:56;;;;;;;37.67;21.63;;;0.90;78.00;;;;;;4812435;29;20051;-75
2022/01/11 05:05:23;;;;;;;39.87;20.57;;;1.00;78.10;;;;;;4817994;29;20063;-76
2022/01/11 05:07:49;;;;;;;39.67;20.40;;;0.90;78.00;;;;;;4819571;29;20066;-75
2022/01/11 05:10:15;;;;;;;35.53;18.87;;;0.90;78.00;;;;;;4828530;29;20038;-76
2022/01/11 05:12:40;;;;;;;31.63;18.33;;;1.00;78.00;;;;;;4817641;29;20054;-76
2022/01/11 05:15:09;;;;;;;36.57;19.40;;;0.90;77.90;;;;;;4812944;29;20391;-75
2022/01/11 05:17:35;;;;;;;34.70;17.73;;;0.90;77.80;;;;;;4810568;29;20388;-76
2022/01/11 05:20:01;;;;;;;37.23;19.23;;;0.90;77.80;;;;;;4826409;29;20506;-75
2022/01/11 05:22:27;;;;;;;33.13;19.17;;;0.90;77.70;;;;;;4824512;29;20046;-75
2022/01/11 05:24:52;;;;;;;36.00;19.40;;;0.90;77.80;;;;;;4809294;29;20050;-75
2022/01/11 05:27:18;;;;;;;36.60;18.30;;;0.90;77.90;;;;;;4826497;29;20065;-75
2022/01/11 05:29:43;;;;;;;33.57;17.67;;;0.90;77.90;;;;;;4826802;29;20058;-76
2022/01/11 05:32:09;;;;;;;35.33;18.67;;;1.00;78.10;;;;;;4826837;29;20062;-77
2022/01/11 05:34:34;;;;;;;36.10;18.67;;;1.00;78.10;;;;;;4826827;29;20097;-76
2022/01/11 05:37:00;;;;;;;36.37;18.90;;;1.10;78.20;;;;;;4823496;29;20106;-75
2022/01/11 05:39:26;;;;;;;34.43;18.33;;;1.10;78.20;;;;;;4826772;29;20039;-76
2022/01/11 05:41:51;;;;;;;33.07;17.37;;;1.10;78.20;;;;;;4825963;29;20054;-76
2022/01/11 05:44:17;;;;;;;36.97;18.07;;;1.10;78.10;;;;;;4820125;29;20069;-75
2022/01/11 05:46:43;;;;;;;30.77;18.07;;;1.20;78.10;;;;;;4812275;29;20497;-76
2022/01/11 05:49:09;;;;;;;29.13;17.50;;;1.20;78.00;;;;;;4825283;29;20054;-76
2022/01/11 05:51:34;;;;;;;30.63;16.87;;;1.20;77.80;;;;;;4825876;29;20503;-76
2022/01/11 05:54:00;;;;;;;37.07;18.23;;;1.20;77.70;;;;;;4825884;29;20096;-75
2022/01/11 05:56:27;;;;;;;30.47;17.00;;;1.20;77.70;;;;;;4818899;29;20077;-76
2022/01/11 05:58:53;;;;;;;27.87;16.23;;;1.20;77.70;;;;;;4819192;29;20047;-76
2022/01/11 06:01:19;;;;;;;28.70;17.10;;;1.20;77.60;;;;;;4826071;29;20053;-76
2022/01/11 06:03:45;;;;;;;31.80;16.93;;;1.20;77.60;;;;;;4832979;29;20050;-76
2022/01/11 06:06:10;;;;;;;31.90;17.30;;;1.20;77.60;;;;;;4814533;29;20515;-76
2022/01/11 06:08:36;;;;;;;26.73;14.93;;;1.30;77.70;;;;;;4827636;29;20145;-76
2022/01/11 06:11:02;;;;;;;29.07;15.50;;;1.30;77.70;;;;;;4831799;29;20491;-76
2022/01/11 06:13:28;;;;;;;26.53;15.67;;;1.30;77.60;;;;;;4826240;29;20402;-76
2022/01/11 06:15:55;;;;;;;25.40;15.50;;;1.30;77.60;;;;;;4833489;29;20069;-75
2022/01/11 06:18:21;;;;;;;27.50;16.63;;;1.30;77.40;;;;;;4824483;29;20159;-75
2022/01/11 06:20:46;;;;;;;29.17;15.80;;;1.40;77.50;;;;;;4818765;29;20451;-76
2022/01/11 06:23:12;;;;;;;24.00;15.03;;;1.40;77.50;;;;;;4824742;29;20060;-76
2022/01/11 06:25:38;;;;;;;29.10;15.23;;;1.40;77.50;;;;;;4824553;29;20089;-76
2022/01/11 06:28:04;;;;;;;24.87;14.97;;;1.40;77.40;;;;;;4825092;29;20039;-76
2022/01/11 06:30:30;;;;;;;24.57;14.47;;;1.40;77.40;;;;;;4824168;29;20046;-76
2022/01/11 06:32:56;;;;;;;26.17;15.00;;;1.50;77.40;;;;;;4825812;29;20060;-76
2022/01/11 06:35:24;;;;;;;26.20;15.43;;;1.50;77.30;;;;;;4837517;29;20075;-76
2022/01/11 06:37:51;;;;;;;27.43;14.37;;;1.50;77.20;;;;;;4817152;29;20061;-76
2022/01/11 06:40:19;;;;;;;25.17;14.33;;;1.40;77.20;;;;;;4820185;29;20058;-76
2022/01/11 06:42:46;;;;;;;25.73;15.03;;;1.50;76.90;;;;;;4825595;29;20047;-76
2022/01/11 06:45:13;;;;;;;25.10;14.03;;;1.40;76.70;;;;;;4836142;29;20079;-76
2022/01/11 06:47:40;;;;;;;22.97;13.40;;;1.40;76.50;;;;;;4823479;29;20062;-75
2022/01/11 06:50:07;;;;;;;28.20;14.90;;;1.30;76.20;;;;;;4819260;29;20073;-76
2022/01/11 06:52:33;;;;;;;26.37;14.27;;;1.30;76.10;;;;;;4827835;29;20058;-76
2022/01/11 06:54:58;;;;;;;25.03;14.30;;;1.30;76.20;;;;;;4833905;29;20050;-75
2022/01/11 06:57:24;;;;;;;24.63;14.43;;;1.30;76.30;;;;;;4824915;29;20042;-75
2022/01/11 06:59:50;;;;;;;21.23;13.50;;;1.30;76.40;;;;;;4814775;29;20421;-75
2022/01/11 07:02:16;;;;;;;26.47;15.40;;;1.30;76.40;;;;;;4824094;29;20058;-75
2022/01/11 07:04:41;;;;;;;27.23;14.83;;;1.30;76.40;;;;;;4825558;29;20049;-76
2022/01/11 07:07:07;;;;;;;25.47;14.87;;;1.30;76.20;;;;;;4825186;29;20046;-76
2022/01/11 07:09:34;;;;;;;22.00;13.40;;;1.20;76.00;;;;;;4823320;29;20058;-76
2022/01/11 07:12:01;;;;;;;20.40;13.40;;;1.20;75.90;;;;;;4824621;29;20052;-75
2022/01/11 07:14:27;;;;;;;24.60;13.77;;;1.10;75.70;;;;;;4820176;29;20499;-75
2022/01/11 07:16:53;;;;;;;21.10;13.73;;;1.10;75.70;;;;;;4824487;29;20084;-75
2022/01/11 07:19:20;;;;;;;26.77;14.70;;;1.00;75.60;;;;;;4823928;29;20062;-75
2022/01/11 07:21:47;;;;;;;23.00;14.37;;;1.00;75.90;;;;;;4817253;29;20062;-76
2022/01/11 07:24:17;;;;;;;25.60;13.87;;;0.90;76.30;;;;;;4824030;29;20089;-75
2022/01/11 07:26:43;;;;;;;22.47;13.40;;;1.00;76.00;;;;;;4825229;29;20061;-76
2022/01/11 07:29:09;;;;;;;25.47;14.40;;;0.90;76.00;;;;;;4835660;29;20047;-76
2022/01/11 07:31:37;;;;;;;24.93;14.13;;;0.90;76.00;;;;;;4824068;29;20047;-76
2022/01/11 07:34:06;;;;;;;22.13;13.57;;;0.90;76.00;;;;;;4825225;29;20046;-75
2022/01/11 07:36:32;;;;;;;26.90;16.03;;;0.80;75.90;;;;;;4805255;29;20062;-76
2022/01/11 07:38:58;;;;;;;25.97;14.77;;;0.80;76.00;;;;;;4800870;29;20050;-76
2022/01/11 07:41:25;;;;;;;27.40;16.03;;;0.80;76.30;;;;;;4806693;29;20042;-76
2022/01/11 07:43:51;;;;;;;25.97;14.63;;;0.80;76.40;;;;;;4806687;29;20057;-76
2022/01/11 07:46:16;;;;;;;27.37;15.27;;;0.80;76.90;;;;;;4806666;29;20054;-76
2022/01/11 07:48:42;;;;;;;28.17;16.93;;;0.80;76.50;;;;;;4798448;29;20051;-76
2022/01/11 07:51:08;;;;;;;27.07;15.90;;;0.80;76.60;;;;;;4805482;29;20062;-76
2022/01/11 07:53:34;;;;;;;28.87;15.93;;;0.80;76.50;;;;;;4805483;29;20169;-75
2022/01/11 07:56:00;;;;;;;27.23;14.63;;;0.90;76.50;;;;;;4815944;29;20141;-76
2022/01/11 07:58:26;;;;;;;26.10;15.20;;;0.80;76.50;;;;;;4820698;29;20058;-76
2022/01/11 08:00:52;;;;;;;31.57;15.90;;;0.80;76.70;;;;;;4806341;29;20047;-76
2022/01/11 08:03:18;;;;;;;30.40;16.03;;;0.90;76.80;;;;;;4802717;29;20078;-76
2022/01/11 08:05:44;;;;;;;24.93;15.30;;;0.90;76.90;;;;;;4813696;29;20479;-76
2022/01/11 08:08:09;;;;;;;26.80;15.20;;;0.90;76.90;;;;;;4805617;29;20058;-76
2022/01/11 08:10:35;;;;;;;27.90;15.50;;;0.90;77.00;;;;;;4820451;29;20088;-76
2022/01/11 08:13:06;;;;;;;24.00;14.57;;;0.90;77.00;;;;;;4806556;29;20093;-75
2022/01/11 08:15:33;;;;;;;27.00;15.23;;;0.90;77.10;;;;;;4804370;29;20130;-75
2022/01/11 08:17:59;;;;;;;30.77;17.17;;;1.00;77.20;;;;;;4799969;29;20062;-75
2022/01/11 08:20:24;;;;;;;30.47;15.97;;;1.00;77.20;;;;;;4806406;29;20055;-75
2022/01/11 08:22:51;;;;;;;31.77;17.13;;;1.00;77.20;;;;;;4806411;29;20057;-75
2022/01/11 08:25:17;;;;;;;29.43;16.60;;;1.00;77.20;;;;;;4818096;29;20059;-75
2022/01/11 08:27:42;;;;;;;27.83;15.93;;;1.00;77.20;;;;;;4806241;29;20384;-75
2022/01/11 08:30:09;;;;;;;29.07;17.17;;;1.00;77.30;;;;;;4801511;29;20047;-75
2022/01/11 08:32:35;;;;;;;30.57;17.73;;;1.00;77.20;;;;;;4822355;29;20495;-75
2022/01/11 08:35:00;;;;;;;28.07;16.17;;;1.10;77.30;;;;;;4809887;29;20086;-76
2022/01/11 08:37:26;;;;;;;30.00;17.40;;;1.00;77.30;;;;;;4809706;29;20089;-75
2022/01/11 08:39:53;;;;;;;30.13;16.77;;;1.10;77.40;;;;;;4809693;29;20043;-75
2022/01/11 08:42:19;;;;;;;31.13;18.23;;;1.10;77.50;;;;;;4809500;29;20058;-76
2022/01/11 08:44:47;;;;;;;31.00;17.90;;;1.10;77.50;;;;;;4801649;29;20051;-76
2022/01/11 08:47:14;;;;;;;32.63;18.20;;;1.20;77.60;;;;;;4809326;29;20125;-76
2022/01/11 08:49:40;;;;;;;33.50;19.43;;;1.20;77.60;;;;;;4801174;29;20141;-76
2022/01/11 08:52:06;;;;;;;34.37;18.90;;;1.20;77.60;;;;;;4823116;29;20550;-76
2022/01/11 08:54:32;;;;;;;33.57;19.57;;;1.30;77.60;;;;;;4833352;29;20435;-76
2022/01/11 08:56:58;;;;;;;32.50;18.53;;;1.30;77.60;;;;;;4836786;29;20043;-76
2022/01/11 08:59:28;;;;;;;34.97;19.63;;;1.30;77.60;;;;;;4841705;29;20511;-75
2022/01/11 09:01:59;;;;;;;33.63;19.93;;;1.30;77.60;;;;;;4820410;29;20058;-76
2022/01/11 09:04:27;;;;;;;40.23;20.47;;;1.30;77.70;;;;;;4841655;29;20058;-76
2022/01/11 09:06:57;;;;;;;35.20;19.80;;;1.30;77.80;;;;;;4820384;29;20054;-74
2022/01/11 09:09:24;;;;;;;36.00;20.73;;;1.40;77.80;;;;;;4826008;29;20129;-75
2022/01/11 09:11:51;;;;;;;40.30;21.77;;;1.40;77.80;;;;;;4827241;29;20442;-75
2022/01/11 09:14:17;;;;;;;35.70;20.77;;;1.40;77.90;;;;;;4827067;29;20137;-75
2022/01/11 09:16:43;;;;;;;41.60;21.57;;;1.40;77.90;;;;;;4834175;29;20104;-75
2022/01/11 09:19:08;;;;;;;38.27;21.47;;;1.50;78.00;;;;;;4825789;29;20054;-77
2022/01/11 09:21:34;;;;;;;37.03;21.87;;;1.50;78.00;;;;;;4826908;29;20482;-77
2022/01/11 09:24:00;;;;;;;38.20;21.90;;;1.50;77.90;;;;;;4827109;29;20502;-77
2022/01/11 09:26:26;;;;;;;40.70;22.40;;;1.60;78.00;;;;;;4826955;29;20125;-74
2022/01/11 09:28:52;;;;;;;35.37;19.97;;;1.60;78.00;;;;;;4835288;29;20455;-74
2022/01/11 09:31:18;;;;;;;43.87;23.37;;;1.60;77.90;;;;;;4841007;29;20084;-74
2022/01/11 09:33:43;;;;;;;35.87;20.97;;;1.60;77.90;;;;;;4826923;29;20089;-74
2022/01/11 09:36:09;;;;;;;40.03;22.73;;;1.70;77.90;;;;;;4822189;29;20099;-74
2022/01/11 09:38:35;;;;;;;37.43;21.90;;;1.70;77.80;;;;;;4826886;29;20479;-74
2022/01/11 09:41:01;;;;;;;36.30;22.40;;;1.70;77.70;;;;;;4820823;29;20129;-74
2022/01/11 09:43:28;;;;;;;35.27;20.97;;;1.70;77.70;;;;;;4825243;29;20061;-75
2022/01/11 09:45:55;;;;;;;33.97;21.57;;;1.80;77.80;;;;;;4826587;29;20046;-74
2022/01/11 09:48:26;;;;;;;39.23;21.13;;;1.80;77.90;;;;;;4826411;29;20406;-75
2022/01/11 09:50:52;;;;;;;38.03;21.33;;;1.80;77.90;;;;;;4826661;29;20061;-76
2022/01/11 09:53:18;;;;;;;41.13;23.20;;;1.80;77.90;;;;;;4826590;29;20042;-76
2022/01/11 09:55:44;;;;;;;39.87;21.87;;;1.90;77.90;;;;;;4826478;29;20487;-76
2022/01/11 09:58:12;;;;;;;38.03;22.07;;;1.90;77.90;;;;;;4836946;29;20058;-75
2022/01/11 10:00:39;;;;;;;36.17;21.87;;;1.90;77.70;;;;;;4825149;29;20103;-75
2022/01/11 10:03:06;;;;;;;35.93;21.40;;;1.90;77.70;;;;;;4826504;29;20049;-75
2022/01/11 10:05:33;;;;;;;36.53;22.27;;;2.00;77.80;;;;;;4824417;29;20050;-75
2022/01/11 10:07:59;;;;;;;39.90;22.70;;;2.00;77.70;;;;;;4820087;29;20093;-76
2022/01/11 10:10:26;;;;;;;37.23;21.13;;;2.00;77.70;;;;;;4826323;29;20042;-75
2022/01/11 10:13:04;;;;;;;39.17;21.40;;;2.00;77.60;;;;;;4819299;29;20050;-75
2022/01/11 10:15:35;;;;;;;38.03;21.40;;;2.00;77.60;;;;;;4826352;29;20050;-75
2022/01/11 10:18:02;;;;;;;35.23;19.90;;;2.00;77.60;;;;;;4825666;29;20054;-75
2022/01/11 10:20:28;;;;;;;35.57;20.57;;;2.10;77.70;;;;;;4838722;29;20058;-76
2022/01/11 10:23:05;;;;;;;38.87;22.00;;;2.30;77.90;;;;;;4826070;29;20054;-76
2022/01/11 10:25:43;;;;;;;38.30;22.03;;;2.20;78.00;;;;;;4839109;29;20061;-76
2022/01/11 10:28:09;;;;;;;35.43;20.67;;;2.20;78.20;;;;;;4821387;29;20051;-76
2022/01/11 10:30:35;;;;;;;35.07;21.03;;;2.30;78.20;;;;;;4826160;29;20061;-76
2022/01/11 10:33:06;;;;;;;34.97;21.00;;;2.40;78.30;;;;;;4826048;29;20054;-76
2022/01/11 10:35:40;;;;;;;38.07;20.57;;;2.40;78.20;;;;;;4825883;29;20050;-76
2022/01/11 10:38:06;;;;;;;35.88;19.35;;;2.40;78.00;;;;;;4825782;29;20502;-75
2022/01/11 10:40:36;;;;;;;32.27;20.17;;;2.50;78.00;;;;;;4825759;29;20058;-75
2022/01/11 10:43:07;;;;;;;31.93;20.10;;;2.60;78.00;;;;;;4825923;29;20054;-76
2022/01/11 10:45:35;;;;;;;33.33;20.63;;;2.60;77.90;;;;;;4839123;29;20054;-75
2022/01/11 10:48:22;;;;;;;34.80;19.83;;;2.60;77.80;;;;;;4825738;29;20062;-76
2022/01/11 10:50:54;;;;;;;29.57;18.23;;;2.70;77.70;;;;;;4833338;29;20054;-76
2022/01/11 10:53:21;;;;;;;32.20;19.67;;;2.70;77.50;;;;;;4824474;29;20054;-76
2022/01/11 10:55:58;;;;;;;29.40;18.20;;;2.80;77.40;;;;;;4824913;29;20403;-76
2022/01/11 10:58:25;;;;;;;32.23;19.53;;;2.80;77.20;;;;;;4825730;29;20050;-76
2022/01/11 11:00:53;;;;;;;32.97;19.30;;;2.80;77.20;;;;;;4825459;29;20051;-76
2022/01/11 11:03:21;;;;;;;28.00;17.83;;;2.90;77.20;;;;;;4821231;29;20089;-76
2022/01/11 11:05:48;;;;;;;29.20;18.60;;;2.90;77.10;;;;;;4817912;29;20398;-76
2022/01/11 11:08:17;;;;;;;26.33;17.87;;;3.00;77.10;;;;;;4825685;29;20046;-76
2022/01/11 11:10:56;;;;;;;29.73;17.73;;;3.00;77.00;;;;;;4832612;29;20046;-76
2022/01/11 11:13:45;;;;;;;27.43;16.97;;;3.10;77.10;;;;;;4825447;29;20046;-76
2022/01/11 11:16:16;;;;;;;27.38;16.75;;;3.20;77.10;;;;;;4820517;29;20062;-76
2022/01/11 11:18:48;;;;;;;23.27;15.67;;;3.20;77.00;;;;;;4825124;29;20494;-76
2022/01/11 11:21:38;;;;;;;28.10;17.70;;;3.30;77.10;;;;;;4825331;29;20095;-76
2022/01/11 11:24:15;;;;;;;26.40;15.60;;;3.40;76.90;;;;;;4786357;29;20070;-76
2022/01/11 11:26:50;;;;;;;25.80;16.50;;;3.40;77.00;;;;;;4789659;29;20082;-76
2022/01/11 11:29:18;;;;;;;28.17;15.87;;;3.50;76.80;;;;;;4789707;29;20141;-75
2022/01/11 11:31:44;;;;;;;25.40;16.30;;;3.60;76.80;;;;;;4804745;29;20067;-77
2022/01/11 11:34:10;;;;;;;25.93;16.60;;;3.70;76.70;;;;;;4789887;29;20059;-76
2022/01/11 11:36:38;;;;;;;24.02;14.63;;;3.70;76.60;;;;;;4789749;29;20156;-76
2022/01/11 11:39:23;;;;;;;23.50;15.13;;;3.80;76.70;;;;;;4804857;29;20072;-74
2022/01/11 11:41:55;;;;;;;23.83;15.75;;;3.90;76.60;;;;;;4783708;29;20066;-74
2022/01/11 11:44:26;;;;;;;26.85;15.15;;;3.90;76.40;;;;;;4804648;29;20515;-74
2022/01/11 11:46:59;;;;;;;23.83;15.27;;;4.00;76.30;;;;;;4789482;29;20059;-75
2022/01/11 11:49:51;;;;;;;23.25;14.70;;;4.10;76.20;;;;;;4804546;29;20054;-75
2022/01/11 11:52:31;;;;;;;24.42;14.98;;;4.20;76.10;;;;;;4789717;29;20537;-75
2022/01/11 11:55:19;;;;;;;23.15;14.40;;;4.20;75.90;;;;;;4804605;29;20063;-75
2022/01/11 11:57:46;;;;;;;22.30;13.90;;;4.30;75.70;;;;;;4782918;29;20580;-75
2022/01/11 12:00:43;;;;;;;21.88;13.88;;;4.40;75.30;;;;;;4807676;29;20120;-74
2022/01/11 12:03:26;;;;;;;21.77;14.70;;;4.40;74.80;;;;;;4835413;29;20478;-75
2022/01/11 12:05:53;;;;;;;20.40;13.52;;;4.50;75.10;;;;;;4838908;29;20090;-74
2022/01/11 12:08:27;;;;;;;22.33;14.13;;;4.50;75.10;;;;;;4828236;29;20060;-75
2022/01/11 12:10:56;;;;;;;19.88;14.02;;;4.60;74.50;;;;;;4836871;29;20071;-75
2022/01/11 12:13:48;;;;;;;23.15;14.85;;;4.60;74.50;;;;;;4827028;29;20556;-74
2022/01/11 12:16:26;;;;;;;23.02;14.23;;;4.70;74.20;;;;;;4826651;29;20090;-74
2022/01/11 12:18:53;;;;;;;22.98;14.30;;;4.70;74.30;;;;;;4827938;29;20070;-75
2022/01/11 12:21:20;;;;;;;22.15;13.65;;;4.80;74.10;;;;;;4824259;29;20093;-75
2022/01/11 12:23:47;;;;;;;22.08;14.45;;;4.80;74.00;;;;;;4828133;29;20046;-74
2022/01/11 12:26:20;;;;;;;22.30;13.88;;;4.80;73.70;;;;;;4828023;29;20054;-75
2022/01/11 12:29:05;;;;;;;20.25;14.45;;;4.90;73.60;;;;;;4835293;29;20078;-75
2022/01/11 12:31:50;;;;;;;21.88;13.38;;;4.90;73.30;;;;;;4827797;29;20095;-74
2022/01/11 12:34:15;;;;;;;19.48;13.25;;;4.90;73.40;;;;;;4827906;29;20050;-75
2022/01/11 12:37:03;;;;;;;22.08;14.68;;;5.00;73.60;;;;;;4828019;29;20146;-74
2022/01/11 12:39:32;;;;;;;19.23;13.57;;;5.00;73.40;;;;;;4827643;29;20509;-75
2022/01/11 12:41:59;;;;;;;20.63;13.65;;;5.00;73.50;;;;;;4827626;29;20052;-74
2022/01/11 12:46:59;;;;;;;22.55;14.20;;;5.10;73.40;;;;;;4827302;29;20062;-75